sensor_id;sensor_type;location;lat;lon;timestamp;pressure;altitude;pressure_sealevel;temperature;humidity
36378;BME280;22402;42.746;23.606;2023-10-19T00:02:09;93542.25;;;7.50;100.00
36378;BME280;22402;42.746;23.606;2023-10-19T00:04:43;93527.63;;;7.49;100.00
36378;BME280;22402;42.746;23.606;2023-10-19T00:07:08;93532.81;;;7.49;100.00
36378;BME280;22402;42.746;23.606;2023-10-19T00:09:41;93525.75;;;7.51;100.00
36378;BME280;22402;42.746;23.606;2023-10-19T00:12:10;93519.63;;;7.52;100.00
36378;BME280;22402;42.746;23.606;2023-10-19T00:14:35;93524.91;;;7.51;100.00
36378;BME280;22402;42.746;23.606;2023-10-19T00:17:01;93526.00;;;7.48;100.00
36378;BME280;22402;42.746;23.606;2023-10-19T00:19:36;93520.09;;;7.46;100.00
36378;BME280;22402;42.746;23.606;2023-10-19T00:22:07;93524.59;;;7.44;100.00
36378;BME280;22402;42.746;23.606;2023-10-19T00:24:34;93527.19;;;7.44;100.00
36378;BME280;22402;42.746;23.606;2023-10-19T00:27:00;93518.69;;;7.42;100.00
36378;BME280;22402;42.746;23.606;2023-10-19T00:29:35;93517.31;;;7.38;100.00
36378;BME280;22402;42.746;23.606;2023-10-19T00:32:06;93517.41;;;7.37;100.00
36378;BME280;22402;42.746;23.606;2023-10-19T00:34:32;93517.41;;;7.37;100.00
36378;BME280;22402;42.746;23.606;2023-10-19T00:36:59;93508.81;;;7.36;100.00
36378;BME280;22402;42.746;23.606;2023-10-19T00:39:34;93504.59;;;7.35;100.00
36378;BME280;22402;42.746;23.606;2023-10-19T00:42:09;93502.09;;;7.34;100.00
36378;BME280;22402;42.746;23.606;2023-10-19T00:44:35;93496.91;;;7.34;100.00
36378;BME280;22402;42.746;23.606;2023-10-19T00:47:08;93503.19;;;7.31;100.00
36378;BME280;22402;42.746;23.606;2023-10-19T00:49:40;93500.47;;;7.33;100.00
36378;BME280;22402;42.746;23.606;2023-10-19T00:52:18;93497.75;;;7.34;100.00
36378;BME280;22402;42.746;23.606;2023-10-19T00:54:50;93506.22;;;7.36;100.00
36378;BME280;22402;42.746;23.606;2023-10-19T00:57:18;93493.72;;;7.41;100.00
36378;BME280;22402;42.746;23.606;2023-10-19T00:59:59;93495.09;;;7.45;100.00
36378;BME280;22402;42.746;23.606;2023-10-19T01:02:46;93493.78;;;7.51;100.00
36378;BME280;22402;42.746;23.606;2023-10-19T01:05:11;93499.69;;;7.53;100.00
36378;BME280;22402;42.746;23.606;2023-10-19T01:07:40;93493.53;;;7.54;100.00
36378;BME280;22402;42.746;23.606;2023-10-19T01:10:07;93485.19;;;7.50;100.00
36378;BME280;22402;42.746;23.606;2023-10-19T01:12:49;93488.97;;;7.46;100.00
36378;BME280;22402;42.746;23.606;2023-10-19T01:15:20;93496.19;;;7.43;100.00
36378;BME280;22402;42.746;23.606;2023-10-19T01:17:56;93494.06;;;7.37;100.00
36378;BME280;22402;42.746;23.606;2023-10-19T01:20:23;93501.03;;;7.36;100.00
36378;BME280;22402;42.746;23.606;2023-10-19T01:23:09;93498.94;;;7.30;100.00
36378;BME280;22402;42.746;23.606;2023-10-19T01:25:58;93498.22;;;7.28;100.00
36378;BME280;22402;42.746;23.606;2023-10-19T01:28:32;93503.66;;;7.25;100.00
36378;BME280;22402;42.746;23.606;2023-10-19T01:31:14;93503.91;;;7.22;100.00
36378;BME280;22402;42.746;23.606;2023-10-19T01:34:01;93506.75;;;7.19;100.00
36378;BME280;22402;42.746;23.606;2023-10-19T01:36:30;93502.38;;;7.19;100.00
36378;BME280;22402;42.746;23.606;2023-10-19T01:39:01;93507.47;;;7.21;100.00
36378;BME280;22402;42.746;23.606;2023-10-19T01:41:27;93498.16;;;7.18;100.00
36378;BME280;22402;42.746;23.606;2023-10-19T01:43:54;93500.84;;;7.17;100.00
36378;BME280;22402;42.746;23.606;2023-10-19T01:46:21;93499.22;;;7.16;100.00
36378;BME280;22402;42.746;23.606;2023-10-19T01:48:48;93503.69;;;7.14;100.00
36378;BME280;22402;42.746;23.606;2023-10-19T01:51:15;93508.19;;;7.12;100.00
36378;BME280;22402;42.746;23.606;2023-10-19T01:53:42;93500.66;;;7.08;100.00
36378;BME280;22402;42.746;23.606;2023-10-19T01:56:12;93493.94;;;7.06;100.00
36378;BME280;22402;42.746;23.606;2023-10-19T01:58:43;93489.59;;;7.06;100.00
36378;BME280;22402;42.746;23.606;2023-10-19T02:01:09;93487.00;;;7.06;100.00
36378;BME280;22402;42.746;23.606;2023-10-19T02:03:47;93488.78;;;7.06;100.00
36378;BME280;22402;42.746;23.606;2023-10-19T02:06:14;93482.16;;;7.02;100.00
36378;BME280;22402;42.746;23.606;2023-10-19T02:09:04;93481.34;;;7.01;100.00
36378;BME280;22402;42.746;23.606;2023-10-19T02:11:56;93488.19;;;7.02;100.00
36378;BME280;22402;42.746;23.606;2023-10-19T02:14:23;93482.75;;;7.05;100.00
36378;BME280;22402;42.746;23.606;2023-10-19T02:16:54;93480.75;;;7.09;100.00
36378;BME280;22402;42.746;23.606;2023-10-19T02:19:25;93488.84;;;7.16;100.00
36378;BME280;22402;42.746;23.606;2023-10-19T02:21:56;93485.09;;;7.20;100.00
36378;BME280;22402;42.746;23.606;2023-10-19T02:24:22;93489.88;;;7.24;100.00
36378;BME280;22402;42.746;23.606;2023-10-19T02:26:50;93498.94;;;7.30;100.00
36378;BME280;22402;42.746;23.606;2023-10-19T02:29:17;93502.94;;;7.34;100.00
36378;BME280;22402;42.746;23.606;2023-10-19T02:31:44;93496.56;;;7.38;100.00
36378;BME280;22402;42.746;23.606;2023-10-19T02:34:11;93502.19;;;7.43;100.00
36378;BME280;22402;42.746;23.606;2023-10-19T02:36:39;93498.66;;;7.44;100.00
36378;BME280;22402;42.746;23.606;2023-10-19T02:39:09;93501.78;;;7.59;100.00
36378;BME280;22402;42.746;23.606;2023-10-19T02:41:39;93508.16;;;7.55;100.00
36378;BME280;22402;42.746;23.606;2023-10-19T02:44:13;93507.47;;;7.53;100.00
36378;BME280;22402;42.746;23.606;2023-10-19T02:46:42;93503.22;;;7.52;100.00
36378;BME280;22402;42.746;23.606;2023-10-19T02:49:09;93503.09;;;7.53;100.00
36378;BME280;22402;42.746;23.606;2023-10-19T02:51:42;93489.88;;;7.57;100.00
36378;BME280;22402;42.746;23.606;2023-10-19T02:54:19;93493.03;;;7.60;100.00
36378;BME280;22402;42.746;23.606;2023-10-19T02:56:46;93501.63;;;7.61;100.00
36378;BME280;22402;42.746;23.606;2023-10-19T02:59:17;93498.13;;;7.62;100.00
36378;BME280;22402;42.746;23.606;2023-10-19T03:01:48;93495.53;;;7.62;100.00
36378;BME280;22402;42.746;23.606;2023-10-19T03:04:14;93497.41;;;7.60;100.00
36378;BME280;22402;42.746;23.606;2023-10-19T03:06:41;93503.81;;;7.56;100.00
36378;BME280;22402;42.746;23.606;2023-10-19T03:09:08;93489.41;;;7.51;100.00
36378;BME280;22402;42.746;23.606;2023-10-19T03:11:59;93489.56;;;7.50;100.00
36378;BME280;22402;42.746;23.606;2023-10-19T03:14:28;93496.75;;;7.46;100.00
36378;BME280;22402;42.746;23.606;2023-10-19T03:16:54;93489.34;;;7.42;100.00
36378;BME280;22402;42.746;23.606;2023-10-19T03:19:23;93492.56;;;7.34;100.00
36378;BME280;22402;42.746;23.606;2023-10-19T03:21:50;93500.81;;;7.28;100.00
36378;BME280;22402;42.746;23.606;2023-10-19T03:24:17;93491.66;;;7.24;100.00
36378;BME280;22402;42.746;23.606;2023-10-19T03:27:15;93501.47;;;7.20;100.00
36378;BME280;22402;42.746;23.606;2023-10-19T03:29:43;93489.81;;;7.15;100.00
36378;BME280;22402;42.746;23.606;2023-10-19T03:32:14;93493.31;;;7.14;100.00
36378;BME280;22402;42.746;23.606;2023-10-19T03:34:41;93489.34;;;7.10;100.00
36378;BME280;22402;42.746;23.606;2023-10-19T03:37:12;93490.28;;;7.08;100.00
36378;BME280;22402;42.746;23.606;2023-10-19T03:39:39;93486.88;;;7.08;100.00
36378;BME280;22402;42.746;23.606;2023-10-19T03:42:05;93486.03;;;7.07;100.00
36378;BME280;22402;42.746;23.606;2023-10-19T03:44:32;93488.63;;;7.07;100.00
36378;BME280;22402;42.746;23.606;2023-10-19T03:47:13;93480.75;;;7.09;100.00
36378;BME280;22402;42.746;23.606;2023-10-19T03:52:13;93477.41;;;7.18;100.00
36378;BME280;22402;42.746;23.606;2023-10-19T03:57:15;93470.88;;;7.35;100.00
36378;BME280;22402;42.746;23.606;2023-10-19T03:59:54;93476.25;;;7.43;100.00
36378;BME280;22402;42.746;23.606;2023-10-19T04:02:26;93472.94;;;7.52;100.00
36378;BME280;22402;42.746;23.606;2023-10-19T04:05:00;93469.56;;;7.62;100.00
36378;BME280;22402;42.746;23.606;2023-10-19T04:07:26;93461.16;;;7.69;100.00
36378;BME280;22402;42.746;23.606;2023-10-19T04:09:57;93466.38;;;7.79;100.00
36378;BME280;22402;42.746;23.606;2023-10-19T04:12:28;93461.53;;;7.86;100.00
36378;BME280;22402;42.746;23.606;2023-10-19T04:14:57;93461.03;;;7.92;100.00
36378;BME280;22402;42.746;23.606;2023-10-19T04:17:23;93457.09;;;7.97;100.00
36378;BME280;22402;42.746;23.606;2023-10-19T04:19:49;93457.78;;;7.99;100.00
36378;BME280;22402;42.746;23.606;2023-10-19T04:22:17;93462.19;;;8.09;100.00
36378;BME280;22402;42.746;23.606;2023-10-19T04:24:52;93460.03;;;8.14;100.00
36378;BME280;22402;42.746;23.606;2023-10-19T04:27:18;93468.25;;;8.19;100.00
36378;BME280;22402;42.746;23.606;2023-10-19T04:29:48;93462.81;;;8.22;100.00
36378;BME280;22402;42.746;23.606;2023-10-19T04:32:15;93456.41;;;8.26;100.00
36378;BME280;22402;42.746;23.606;2023-10-19T04:34:44;93457.09;;;8.28;100.00
36378;BME280;22402;42.746;23.606;2023-10-19T04:37:10;93456.94;;;8.30;100.00
36378;BME280;22402;42.746;23.606;2023-10-19T04:39:38;93447.66;;;8.27;100.00
36378;BME280;22402;42.746;23.606;2023-10-19T04:42:03;93455.31;;;8.29;100.00
36378;BME280;22402;42.746;23.606;2023-10-19T04:44:29;93452.16;;;8.25;100.00
36378;BME280;22402;42.746;23.606;2023-10-19T04:46:56;93444.22;;;8.27;100.00
36378;BME280;22402;42.746;23.606;2023-10-19T04:49:22;93447.94;;;8.24;100.00
36378;BME280;22402;42.746;23.606;2023-10-19T04:51:48;93445.59;;;8.21;100.00
36378;BME280;22402;42.746;23.606;2023-10-19T04:54:13;93445.72;;;8.19;100.00
36378;BME280;22402;42.746;23.606;2023-10-19T04:56:39;93449.94;;;8.20;100.00
36378;BME280;22402;42.746;23.606;2023-10-19T04:59:04;93454.31;;;8.20;100.00
36378;BME280;22402;42.746;23.606;2023-10-19T05:01:30;93448.03;;;8.22;100.00
36378;BME280;22402;42.746;23.606;2023-10-19T05:03:59;93439.03;;;8.27;100.00
36378;BME280;22402;42.746;23.606;2023-10-19T05:06:25;93448.50;;;8.28;100.00
36378;BME280;22402;42.746;23.606;2023-10-19T05:08:50;93453.53;;;8.29;100.00
36378;BME280;22402;42.746;23.606;2023-10-19T05:11:17;93454.78;;;8.35;100.00
36378;BME280;22402;42.746;23.606;2023-10-19T05:13:43;93450.31;;;8.37;100.00
36378;BME280;22402;42.746;23.606;2023-10-19T05:16:09;93459.38;;;8.42;100.00
36378;BME280;22402;42.746;23.606;2023-10-19T05:18:34;93454.03;;;8.44;100.00
36378;BME280;22402;42.746;23.606;2023-10-19T05:21:00;93455.56;;;8.47;100.00
36378;BME280;22402;42.746;23.606;2023-10-19T05:23:27;93462.38;;;8.48;100.00
36378;BME280;22402;42.746;23.606;2023-10-19T05:26:03;93463.91;;;8.50;100.00
36378;BME280;22402;42.746;23.606;2023-10-19T05:28:30;93458.31;;;8.55;100.00
36378;BME280;22402;42.746;23.606;2023-10-19T05:30:55;93471.50;;;8.63;100.00
36378;BME280;22402;42.746;23.606;2023-10-19T05:33:21;93470.16;;;8.69;100.00
36378;BME280;22402;42.746;23.606;2023-10-19T05:35:49;93474.66;;;8.76;100.00
36378;BME280;22402;42.746;23.606;2023-10-19T05:38:16;93464.00;;;8.79;100.00
36378;BME280;22402;42.746;23.606;2023-10-19T05:40:42;93461.84;;;8.84;100.00
36378;BME280;22402;42.746;23.606;2023-10-19T05:45:45;93469.09;;;8.90;100.00
36378;BME280;22402;42.746;23.606;2023-10-19T05:48:15;93472.13;;;8.96;100.00
36378;BME280;22402;42.746;23.606;2023-10-19T05:50:41;93468.56;;;8.97;100.00
36378;BME280;22402;42.746;23.606;2023-10-19T05:53:08;93470.63;;;9.03;100.00
36378;BME280;22402;42.746;23.606;2023-10-19T05:55:33;93470.22;;;9.07;100.00
36378;BME280;22402;42.746;23.606;2023-10-19T05:58:02;93472.69;;;9.09;100.00
36378;BME280;22402;42.746;23.606;2023-10-19T06:00:30;93470.78;;;9.11;100.00
36378;BME280;22402;42.746;23.606;2023-10-19T06:02:56;93479.94;;;9.15;100.00
36378;BME280;22402;42.746;23.606;2023-10-19T06:05:23;93481.47;;;9.18;100.00
36378;BME280;22402;42.746;23.606;2023-10-19T06:07:49;93473.81;;;9.26;100.00
36378;BME280;22402;42.746;23.606;2023-10-19T06:10:21;93477.91;;;9.38;100.00
36378;BME280;22402;42.746;23.606;2023-10-19T06:12:51;93476.81;;;9.50;100.00
36378;BME280;22402;42.746;23.606;2023-10-19T06:15:18;93482.44;;;9.65;100.00
36378;BME280;22402;42.746;23.606;2023-10-19T06:17:46;93473.50;;;9.97;100.00
36378;BME280;22402;42.746;23.606;2023-10-19T06:20:13;93466.03;;;10.31;100.00
36378;BME280;22402;42.746;23.606;2023-10-19T06:22:47;93473.22;;;10.57;100.00
36378;BME280;22402;42.746;23.606;2023-10-19T06:25:20;93480.09;;;10.85;100.00
36378;BME280;22402;42.746;23.606;2023-10-19T06:27:47;93473.81;;;11.24;100.00
36378;BME280;22402;42.746;23.606;2023-10-19T06:30:17;93464.06;;;11.44;100.00
36378;BME280;22402;42.746;23.606;2023-10-19T06:32:55;93469.91;;;11.55;100.00
36378;BME280;22402;42.746;23.606;2023-10-19T06:35:21;93477.84;;;11.72;100.00
36378;BME280;22402;42.746;23.606;2023-10-19T06:37:47;93475.03;;;11.83;100.00
36378;BME280;22402;42.746;23.606;2023-10-19T06:40:14;93458.78;;;11.89;100.00
36378;BME280;22402;42.746;23.606;2023-10-19T06:42:44;93454.22;;;11.91;100.00
36378;BME280;22402;42.746;23.606;2023-10-19T06:45:13;93459.00;;;11.96;100.00
36378;BME280;22402;42.746;23.606;2023-10-19T06:47:40;93457.63;;;12.09;100.00
36378;BME280;22402;42.746;23.606;2023-10-19T06:50:07;93460.97;;;12.20;99.55
36378;BME280;22402;42.746;23.606;2023-10-19T06:52:36;93465.88;;;12.23;97.92
36378;BME280;22402;42.746;23.606;2023-10-19T06:55:06;93467.22;;;12.27;96.84
36378;BME280;22402;42.746;23.606;2023-10-19T06:57:53;93469.56;;;12.38;96.52
36378;BME280;22402;42.746;23.606;2023-10-19T07:00:20;93469.66;;;12.54;96.86
36378;BME280;22402;42.746;23.606;2023-10-19T07:02:50;93479.41;;;12.70;94.91
36378;BME280;22402;42.746;23.606;2023-10-19T07:05:16;93470.16;;;12.92;94.35
36378;BME280;22402;42.746;23.606;2023-10-19T07:07:56;93477.84;;;13.28;92.42
36378;BME280;22402;42.746;23.606;2023-10-19T07:10:23;93482.81;;;13.64;91.27
36378;BME280;22402;42.746;23.606;2023-10-19T07:12:51;93472.50;;;14.11;89.14
36378;BME280;22402;42.746;23.606;2023-10-19T07:15:19;93464.75;;;14.51;85.72
36378;BME280;22402;42.746;23.606;2023-10-19T07:17:45;93458.16;;;14.79;83.65
36378;BME280;22402;42.746;23.606;2023-10-19T07:20:13;93457.38;;;15.02;81.94
36378;BME280;22402;42.746;23.606;2023-10-19T07:22:54;93447.50;;;15.12;80.15
36378;BME280;22402;42.746;23.606;2023-10-19T07:25:21;93447.16;;;15.15;78.91
36378;BME280;22402;42.746;23.606;2023-10-19T07:27:50;93444.84;;;15.20;78.85
36378;BME280;22402;42.746;23.606;2023-10-19T07:30:17;93438.25;;;15.24;78.17
36378;BME280;22402;42.746;23.606;2023-10-19T07:32:50;93436.63;;;15.23;77.22
36378;BME280;22402;42.746;23.606;2023-10-19T07:35:19;93435.03;;;15.14;76.85
36378;BME280;22402;42.746;23.606;2023-10-19T07:37:45;93438.69;;;15.05;77.31
36378;BME280;22402;42.746;23.606;2023-10-19T07:40:13;93435.91;;;14.98;77.33
36378;BME280;22402;42.746;23.606;2023-10-19T07:42:40;93433.63;;;14.95;77.21
36378;BME280;22402;42.746;23.606;2023-10-19T07:45:06;93431.81;;;14.96;77.50
36378;BME280;22402;42.746;23.606;2023-10-19T07:47:37;93436.72;;;14.99;76.93
36378;BME280;22402;42.746;23.606;2023-10-19T07:50:06;93439.84;;;15.02;76.52
36378;BME280;22402;42.746;23.606;2023-10-19T07:52:34;93441.63;;;15.41;75.15
36378;BME280;22402;42.746;23.606;2023-10-19T07:55:00;93437.56;;;15.85;74.63
36378;BME280;22402;42.746;23.606;2023-10-19T07:57:27;93440.63;;;16.64;73.13
36378;BME280;22402;42.746;23.606;2023-10-19T07:59:54;93451.38;;;17.43;69.46
36378;BME280;22402;42.746;23.606;2023-10-19T08:02:21;93448.06;;;17.56;68.21
36378;BME280;22402;42.746;23.606;2023-10-19T08:04:50;93460.03;;;17.37;68.38
36378;BME280;22402;42.746;23.606;2023-10-19T08:07:16;93448.88;;;17.57;68.65
36378;BME280;22402;42.746;23.606;2023-10-19T08:09:42;93438.22;;;18.29;66.25
36378;BME280;22402;42.746;23.606;2023-10-19T08:12:09;93442.38;;;19.01;63.50
36378;BME280;22402;42.746;23.606;2023-10-19T08:14:34;93435.97;;;19.24;62.33
36378;BME280;22402;42.746;23.606;2023-10-19T08:17:00;93441.56;;;19.01;62.20
36378;BME280;22402;42.746;23.606;2023-10-19T08:19:27;93445.13;;;18.58;63.33
36378;BME280;22402;42.746;23.606;2023-10-19T08:21:53;93446.66;;;18.18;64.50
36378;BME280;22402;42.746;23.606;2023-10-19T08:24:18;93445.63;;;17.91;65.94
36378;BME280;22402;42.746;23.606;2023-10-19T08:26:46;93454.03;;;17.80;66.93
36378;BME280;22402;42.746;23.606;2023-10-19T08:29:12;93455.03;;;18.50;66.18
36378;BME280;22402;42.746;23.606;2023-10-19T08:31:42;93446.34;;;19.87;61.73
36378;BME280;22402;42.746;23.606;2023-10-19T08:34:11;93459.31;;;21.34;57.38
36378;BME280;22402;42.746;23.606;2023-10-19T08:36:41;93455.44;;;22.52;53.03
36378;BME280;22402;42.746;23.606;2023-10-19T08:39:08;93447.53;;;23.51;49.85
36378;BME280;22402;42.746;23.606;2023-10-19T08:41:37;93445.88;;;24.28;47.53
36378;BME280;22402;42.746;23.606;2023-10-19T08:44:07;93452.47;;;24.68;46.33
36378;BME280;22402;42.746;23.606;2023-10-19T08:46:45;93454.56;;;25.01;45.31
36378;BME280;22402;42.746;23.606;2023-10-19T08:49:13;93446.78;;;24.64;45.26
36378;BME280;22402;42.746;23.606;2023-10-19T08:51:40;93452.81;;;24.29;46.50
36378;BME280;22402;42.746;23.606;2023-10-19T08:54:10;93449.25;;;24.36;46.44
36378;BME280;22402;42.746;23.606;2023-10-19T08:56:37;93438.81;;;24.22;46.62
36378;BME280;22402;42.746;23.606;2023-10-19T08:59:03;93438.19;;;24.62;46.09
36378;BME280;22402;42.746;23.606;2023-10-19T09:01:29;93450.13;;;25.42;43.93
36378;BME280;22402;42.746;23.606;2023-10-19T09:03:58;93455.59;;;25.87;42.40
36378;BME280;22402;42.746;23.606;2023-10-19T09:06:25;93445.38;;;25.44;41.74
36378;BME280;22402;42.746;23.606;2023-10-19T09:08:50;93436.72;;;24.66;43.38
36378;BME280;22402;42.746;23.606;2023-10-19T09:11:16;93445.28;;;24.26;44.92
36378;BME280;22402;42.746;23.606;2023-10-19T09:13:45;93447.84;;;23.91;45.50
36378;BME280;22402;42.746;23.606;2023-10-19T09:16:15;93447.72;;;23.49;46.28
36378;BME280;22402;42.746;23.606;2023-10-19T09:18:41;93450.31;;;23.19;46.97
36378;BME280;22402;42.746;23.606;2023-10-19T09:21:07;93445.16;;;23.06;47.83
36378;BME280;22402;42.746;23.606;2023-10-19T09:23:37;93434.00;;;22.72;48.52
36378;BME280;22402;42.746;23.606;2023-10-19T09:26:03;93433.47;;;22.38;48.90
36378;BME280;22402;42.746;23.606;2023-10-19T09:28:31;93426.84;;;22.16;49.31
36378;BME280;22402;42.746;23.606;2023-10-19T09:31:00;93437.41;;;21.97;50.11
36378;BME280;22402;42.746;23.606;2023-10-19T09:33:27;93437.94;;;21.81;50.48
36378;BME280;22402;42.746;23.606;2023-10-19T09:35:53;93431.81;;;21.74;50.70
36378;BME280;22402;42.746;23.606;2023-10-19T09:38:22;93426.13;;;22.40;50.80
36378;BME280;22402;42.746;23.606;2023-10-19T09:40:54;93426.25;;;23.51;48.15
36378;BME280;22402;42.746;23.606;2023-10-19T09:43:34;93430.44;;;24.07;45.79
36378;BME280;22402;42.746;23.606;2023-10-19T09:46:06;93429.84;;;24.05;45.23
36378;BME280;22402;42.746;23.606;2023-10-19T09:48:31;93415.63;;;23.81;45.52
36378;BME280;22402;42.746;23.606;2023-10-19T09:51:01;93404.72;;;23.52;45.52
36378;BME280;22402;42.746;23.606;2023-10-19T09:53:29;93410.44;;;23.19;45.60
36378;BME280;22402;42.746;23.606;2023-10-19T09:55:57;93401.56;;;22.88;47.22
36378;BME280;22402;42.746;23.606;2023-10-19T09:58:27;93388.25;;;22.88;46.94
36378;BME280;22402;42.746;23.606;2023-10-19T10:00:57;93371.56;;;23.36;46.44
36378;BME280;22402;42.746;23.606;2023-10-19T10:03:45;93376.88;;;24.97;43.44
36378;BME280;22402;42.746;23.606;2023-10-19T10:06:12;93373.31;;;26.64;40.42
36378;BME280;22402;42.746;23.606;2023-10-19T10:08:40;93365.59;;;28.21;37.16
36378;BME280;22402;42.746;23.606;2023-10-19T10:11:21;93369.25;;;29.69;33.84
36378;BME280;22402;42.746;23.606;2023-10-19T10:13:47;93350.59;;;30.61;32.44
36378;BME280;22402;42.746;23.606;2023-10-19T10:16:21;93348.84;;;31.37;31.47
36378;BME280;22402;42.746;23.606;2023-10-19T10:18:48;93346.66;;;32.04;29.87
36378;BME280;22402;42.746;23.606;2023-10-19T10:21:19;93342.75;;;32.26;29.00
36378;BME280;22402;42.746;23.606;2023-10-19T10:24:00;93334.09;;;31.79;29.11
36378;BME280;22402;42.746;23.606;2023-10-19T10:26:30;93326.88;;;31.74;28.84
36378;BME280;22402;42.746;23.606;2023-10-19T10:29:12;93317.84;;;31.99;28.12
36378;BME280;22402;42.746;23.606;2023-10-19T10:31:46;93323.50;;;32.37;28.34
36378;BME280;22402;42.746;23.606;2023-10-19T10:37:04;93309.16;;;32.76;27.93
36378;BME280;22402;42.746;23.606;2023-10-19T10:39:33;93311.31;;;32.06;28.85
36378;BME280;22402;42.746;23.606;2023-10-19T10:42:02;93304.81;;;30.87;30.25
36378;BME280;22402;42.746;23.606;2023-10-19T10:44:39;93305.06;;;29.63;32.06
36378;BME280;22402;42.746;23.606;2023-10-19T10:47:09;93304.25;;;28.57;34.48
36378;BME280;22402;42.746;23.606;2023-10-19T10:49:49;93305.25;;;27.59;35.69
36378;BME280;22402;42.746;23.606;2023-10-19T10:54:54;93305.75;;;26.01;38.21
36378;BME280;22402;42.746;23.606;2023-10-19T10:57:20;93309.75;;;25.41;40.10
36378;BME280;22402;42.746;23.606;2023-10-19T10:59:46;93291.44;;;24.92;40.70
36378;BME280;22402;42.746;23.606;2023-10-19T11:02:20;93292.00;;;24.54;41.87
36378;BME280;22402;42.746;23.606;2023-10-19T11:04:47;93287.09;;;24.27;42.89
36378;BME280;22402;42.746;23.606;2023-10-19T11:07:19;93269.94;;;24.11;43.44
36378;BME280;22402;42.746;23.606;2023-10-19T11:09:48;93268.81;;;24.54;42.73
36378;BME280;22402;42.746;23.606;2023-10-19T11:12:14;93273.13;;;24.96;41.97
36378;BME280;22402;42.746;23.606;2023-10-19T11:14:58;93261.03;;;25.62;40.19
36378;BME280;22402;42.746;23.606;2023-10-19T11:17:25;93256.72;;;26.07;39.65
36378;BME280;22402;42.746;23.606;2023-10-19T11:19:58;93264.72;;;27.01;38.29
36378;BME280;22402;42.746;23.606;2023-10-19T11:22:27;93261.03;;;28.16;36.54
36378;BME280;22402;42.746;23.606;2023-10-19T11:24:53;93247.53;;;28.85;34.64
36378;BME280;22402;42.746;23.606;2023-10-19T11:27:26;93253.66;;;29.44;34.02
36378;BME280;22402;42.746;23.606;2023-10-19T11:29:58;93240.31;;;29.69;34.55
36378;BME280;22402;42.746;23.606;2023-10-19T11:32:24;93226.06;;;30.25;33.53
36378;BME280;22402;42.746;23.606;2023-10-19T11:34:57;93236.47;;;30.88;32.51
36378;BME280;22402;42.746;23.606;2023-10-19T11:37:22;93229.47;;;31.47;31.49
36378;BME280;22402;42.746;23.606;2023-10-19T11:39:48;93223.22;;;32.01;30.64
36378;BME280;22402;42.746;23.606;2023-10-19T11:42:18;93235.56;;;32.36;29.65
36378;BME280;22402;42.746;23.606;2023-10-19T11:44:44;93218.47;;;32.75;29.35
36378;BME280;22402;42.746;23.606;2023-10-19T11:47:10;93223.53;;;33.06;28.63
36378;BME280;22402;42.746;23.606;2023-10-19T11:49:35;93222.34;;;33.36;27.93
36378;BME280;22402;42.746;23.606;2023-10-19T11:52:05;93221.19;;;33.61;28.03
36378;BME280;22402;42.746;23.606;2023-10-19T11:54:31;93223.25;;;33.69;27.80
36378;BME280;22402;42.746;23.606;2023-10-19T11:56:58;93206.69;;;33.57;27.75
36378;BME280;22402;42.746;23.606;2023-10-19T11:59:24;93209.63;;;33.36;27.68
36378;BME280;22402;42.746;23.606;2023-10-19T12:01:49;93206.34;;;33.40;27.99
36378;BME280;22402;42.746;23.606;2023-10-19T12:04:15;93206.75;;;33.52;27.03
36378;BME280;22402;42.746;23.606;2023-10-19T12:06:40;93201.59;;;33.55;27.42
36378;BME280;22402;42.746;23.606;2023-10-19T12:09:07;93193.09;;;33.62;27.98
36378;BME280;22402;42.746;23.606;2023-10-19T12:11:41;93206.44;;;33.72;27.76
36378;BME280;22402;42.746;23.606;2023-10-19T12:14:07;93203.59;;;33.83;27.56
36378;BME280;22402;42.746;23.606;2023-10-19T12:16:37;93184.56;;;33.88;27.27
36378;BME280;22402;42.746;23.606;2023-10-19T12:19:06;93199.34;;;33.95;26.87
36378;BME280;22402;42.746;23.606;2023-10-19T12:21:35;93193.72;;;33.92;26.96
36378;BME280;22402;42.746;23.606;2023-10-19T12:24:03;93190.22;;;33.72;26.86
36378;BME280;22402;42.746;23.606;2023-10-19T12:26:30;93191.19;;;33.44;26.95
36378;BME280;22402;42.746;23.606;2023-10-19T12:28:56;93191.53;;;33.18;27.20
36378;BME280;22402;42.746;23.606;2023-10-19T12:31:21;93188.53;;;32.96;27.40
36378;BME280;22402;42.746;23.606;2023-10-19T12:33:48;93189.34;;;32.96;27.58
36378;BME280;22402;42.746;23.606;2023-10-19T12:36:14;93184.75;;;32.97;27.79
36378;BME280;22402;42.746;23.606;2023-10-19T12:38:58;93186.31;;;33.03;27.83
36378;BME280;22402;42.746;23.606;2023-10-19T12:41:24;93184.63;;;33.07;27.71
36378;BME280;22402;42.746;23.606;2023-10-19T12:43:50;93173.34;;;33.05;27.04
36378;BME280;22402;42.746;23.606;2023-10-19T12:46:17;93174.00;;;32.91;27.37
36378;BME280;22402;42.746;23.606;2023-10-19T12:48:44;93170.53;;;32.67;28.03
36378;BME280;22402;42.746;23.606;2023-10-19T12:51:12;93177.75;;;32.48;28.48
36378;BME280;22402;42.746;23.606;2023-10-19T12:53:38;93172.44;;;32.37;27.71
36378;BME280;22402;42.746;23.606;2023-10-19T12:56:05;93164.69;;;32.31;28.11
36378;BME280;22402;42.746;23.606;2023-10-19T12:58:32;93153.72;;;32.22;28.24
36378;BME280;22402;42.746;23.606;2023-10-19T13:00:58;93147.81;;;32.20;29.04
36378;BME280;22402;42.746;23.606;2023-10-19T13:03:24;93145.22;;;32.10;28.77
36378;BME280;22402;42.746;23.606;2023-10-19T13:05:56;93155.50;;;32.03;29.07
36378;BME280;22402;42.746;23.606;2023-10-19T13:08:23;93146.97;;;31.95;28.94
36378;BME280;22402;42.746;23.606;2023-10-19T13:10:49;93145.13;;;31.86;29.44
36378;BME280;22402;42.746;23.606;2023-10-19T13:13:15;93142.41;;;31.86;29.84
36378;BME280;22402;42.746;23.606;2023-10-19T13:15:45;93135.75;;;31.78;29.93